Needles, CA (92363)

4:14 PM PST on December 07, 2016 (GMT -0800)
WA6GDF Colorado River near Needles Bridge | | Change Station

Elev 479 ft 34.85 °N, 114.60 °W | Updated 13 minutes ago

Clear
Clear
60.4 °F
Feels Like 60.4 °F
N
9.0
Wind Variable Wind from NE
Gusts 16.0 mph

Today
High -- | Low -- °F
--% Chance of Precip.
Yesterday
High -- | Low -- °F
Precip. -- in
Pressure 30.06 in
Visibility 10.0 miles
Clouds Clear
Dew Point 15 °F
Humidity 17%
Rainfall 0.00 in
Snow Depth Not available.
6:33 AM 4:27 PM
First Quarter, 57% visible
METAR KEED 072356Z AUTO 02014KT 10SM CLR 17/M15 A3009 RMK AO2 SLP179 T01671150 10178 20144 53004
Pressure 30.06 in
Visibility 10.0 miles
Clouds Clear
Dew Point 15 °F
Humidity 17%
Rainfall 0.00 in
Snow Depth Not available.
6:33 AM 4:27 PM
First Quarter, 57% visible
METAR KEED 072356Z AUTO 02014KT 10SM CLR 17/M15 A3009 RMK AO2 SLP179 T01671150 10178 20144 53004

10-Day Weather Forecast

Almanac

Astronomy

Dec. 07, 2016 Rise Set
Actual Time
Civil Twilight
Nautical Twilight
Astronomical Twilight
Moon
Length of Visible Light
Length of Day
Tomorrow will be .
, % of the Moon is Illuminated

Today's Extremes

State Highs State Lows

Community

WunderPhotos

Upload Photos

1,956,221 photos uploaded!

WunderBlog® & News

Nearby

Air Quality

  Air Quality AQ Index Pollutant
Not available.

Snow Depth

Station Depth Elevation

Earthquake Activity

City Distance Mag. Time & Date
Minimum magnitude displayed is 2.5.

Coastal Water Temperatures

Place Temperature

Stations

Nearby Weather Stations

Station Location Temp. Windchill Dew Point Humidity Wind Precip. Elev Updated Type
                   

Watches & Warnings

There are currently no watches in effect.